createdAt,value
2023-03-04T00:00:43.224Z,34.30
2023-03-04T00:03:12.285Z,30.58
2023-03-04T00:05:42.006Z,37.85
2023-03-04T00:08:10.217Z,40.35
2023-03-04T00:10:38.383Z,36.47
2023-03-04T00:13:06.485Z,39.33
2023-03-04T00:15:34.620Z,34.17
2023-03-04T00:18:03.116Z,35.67
2023-03-04T00:20:31.342Z,33.78
2023-03-04T00:23:00.870Z,32.78
2023-03-04T00:25:29.005Z,34.90
2023-03-04T00:27:58.358Z,32.25
2023-03-04T00:30:26.636Z,38.00
2023-03-04T00:32:54.689Z,35.97
2023-03-04T00:35:22.804Z,37.95
2023-03-04T00:37:51.004Z,37.88
2023-03-04T00:40:20.819Z,36.17
2023-03-04T00:42:48.925Z,36.03
2023-03-04T00:45:17.294Z,33.83
2023-03-04T00:47:45.435Z,34.50
2023-03-04T00:50:13.972Z,33.03
2023-03-04T00:52:42.185Z,40.22
2023-03-04T00:55:11.107Z,37.78
2023-03-04T00:57:40.816Z,38.75
2023-03-04T01:00:12.113Z,34.05
2023-03-04T01:02:40.465Z,39.63
2023-03-04T01:05:09.903Z,33.13
2023-03-04T01:07:38.087Z,38.38
2023-03-04T01:10:07.876Z,33.10
2023-03-04T01:12:36.024Z,40.38
2023-03-04T01:15:06.038Z,37.20
2023-03-04T01:17:34.202Z,38.17
2023-03-04T01:20:02.389Z,37.85
2023-03-04T01:22:30.569Z,34.78
2023-03-04T01:24:58.678Z,37.65
2023-03-04T01:27:26.806Z,34.95
2023-03-04T01:29:54.905Z,36.00
2023-03-04T01:32:24.456Z,34.55
2023-03-04T01:34:52.672Z,33.83
2023-03-04T01:37:20.832Z,38.08
2023-03-04T01:39:49.015Z,33.50
2023-03-04T01:42:20.940Z,36.97
2023-03-04T01:44:50.269Z,32.65
2023-03-04T01:47:19.178Z,38.85
2023-03-04T01:49:53.997Z,33.97
2023-03-04T01:52:22.374Z,32.63
2023-03-04T01:54:50.555Z,37.15
2023-03-04T01:57:20.512Z,32.10
2023-03-04T02:00:09.386Z,32.35
2023-03-04T02:02:37.527Z,31.40
2023-03-04T02:05:07.582Z,34.72
2023-03-04T02:07:35.712Z,36.28
2023-03-04T02:10:04.548Z,32.25
2023-03-04T02:12:32.686Z,35.65
2023-03-04T02:15:00.797Z,38.28
2023-03-04T02:17:29.761Z,28.20
2023-03-04T02:20:04.275Z,28.40
2023-03-04T02:22:37.267Z,30.10
2023-03-04T02:25:12.072Z,29.08
2023-03-04T02:27:41.511Z,30.50
2023-03-04T02:30:12.996Z,27.67
2023-03-04T02:32:41.114Z,28.33
2023-03-04T02:35:17.292Z,27.90
2023-03-04T02:37:45.718Z,29.17
2023-03-04T02:40:18.046Z,27.75
2023-03-04T02:42:47.768Z,29.50
2023-03-04T02:45:39.935Z,27.08
2023-03-04T02:48:08.531Z,28.67
2023-03-04T02:50:43.591Z,31.05
2023-03-04T02:53:12.319Z,32.53
2023-03-04T02:55:41.544Z,30.85
2023-03-04T02:58:11.086Z,30.83
2023-03-04T03:00:39.557Z,29.15
2023-03-04T03:03:08.246Z,27.45
2023-03-04T03:05:37.291Z,29.30
2023-03-04T03:08:06.385Z,27.73
2023-03-04T03:10:34.824Z,29.52
2023-03-04T03:13:02.916Z,29.35
2023-03-04T03:15:32.463Z,28.33
2023-03-04T03:18:00.527Z,29.73
2023-03-04T03:20:28.807Z,28.98
2023-03-04T03:22:56.981Z,25.35
2023-03-04T03:25:25.055Z,27.73
2023-03-04T03:27:53.089Z,23.55
2023-03-04T03:30:21.313Z,25.08
2023-03-04T03:32:50.816Z,26.15
2023-03-04T03:35:19.362Z,26.55
2023-03-04T03:37:49.022Z,27.40
2023-03-04T03:40:17.472Z,24.35
2023-03-04T03:42:45.627Z,28.27
2023-03-04T03:45:13.875Z,26.80
2023-03-04T03:47:42.008Z,25.95
2023-03-04T03:50:12.408Z,26.23
2023-03-04T03:52:40.508Z,23.38
2023-03-04T03:55:09.439Z,27.50
2023-03-04T03:57:37.484Z,25.88
2023-03-04T04:00:06.133Z,22.73
2023-03-04T04:02:34.348Z,23.17
2023-03-04T04:05:02.491Z,25.70
2023-03-04T04:07:33.782Z,28.83
2023-03-04T04:10:01.927Z,23.92
2023-03-04T04:12:30.097Z,25.85
2023-03-04T04:14:58.189Z,22.27
2023-03-04T04:17:26.345Z,25.48
2023-03-04T04:19:54.485Z,25.67
2023-03-04T04:22:23.050Z,24.08
2023-03-04T04:24:52.555Z,22.92
2023-03-04T04:27:20.660Z,25.50
2023-03-04T04:29:48.793Z,25.52
2023-03-04T04:32:17.000Z,22.75
2023-03-04T04:34:45.186Z,22.95
2023-03-04T04:37:13.292Z,24.23
2023-03-04T04:39:41.439Z,28.42
2023-03-04T04:42:11.739Z,24.30
2023-03-04T04:44:40.087Z,24.48
2023-03-04T04:47:08.271Z,24.20
2023-03-04T04:49:36.440Z,24.48
2023-03-04T04:52:04.894Z,24.23
2023-03-04T04:54:33.190Z,24.15
2023-03-04T04:57:01.313Z,40.70
2023-03-04T04:59:30.852Z,38.10
2023-03-04T05:01:58.957Z,24.05
2023-03-04T05:04:27.297Z,23.95
2023-03-04T05:06:55.421Z,20.25
2023-03-04T05:09:23.702Z,24.35
2023-03-04T05:11:51.913Z,25.77
2023-03-04T05:14:20.154Z,24.40
2023-03-04T05:16:49.667Z,28.45
2023-03-04T05:19:17.830Z,27.30
2023-03-04T05:21:45.913Z,26.65
2023-03-04T05:24:13.997Z,27.65
2023-03-04T05:26:42.112Z,24.67
2023-03-04T05:29:10.258Z,26.80
2023-03-04T05:31:38.426Z,21.85
2023-03-04T05:34:07.926Z,27.52
2023-03-04T05:36:36.066Z,28.20
2023-03-04T05:39:04.340Z,24.55
2023-03-04T05:41:32.522Z,22.75
2023-03-04T05:44:00.583Z,25.80
2023-03-04T05:46:28.725Z,25.85
2023-03-04T05:48:56.901Z,25.48
2023-03-04T05:51:26.458Z,28.80
2023-03-04T05:53:54.621Z,28.73
2023-03-04T05:56:22.895Z,25.95
2023-03-04T05:58:51.061Z,27.02
2023-03-04T06:01:19.353Z,27.42
2023-03-04T06:03:48.698Z,26.95
2023-03-04T06:06:17.017Z,27.20
2023-03-04T06:08:46.451Z,23.48
2023-03-04T06:11:14.518Z,27.92
2023-03-04T06:13:42.581Z,28.70
2023-03-04T06:16:11.139Z,25.20
2023-03-04T06:18:39.848Z,26.45
2023-03-04T06:21:07.916Z,26.75
2023-03-04T06:23:35.918Z,25.83
2023-03-04T06:26:09.282Z,24.45
2023-03-04T06:28:37.299Z,21.83
2023-03-04T06:31:05.706Z,26.80
2023-03-04T06:33:34.213Z,25.50
2023-03-04T06:36:02.325Z,24.98
2023-03-04T06:38:30.433Z,23.27
2023-03-04T06:40:58.480Z,25.13
2023-03-04T06:43:27.977Z,26.58
2023-03-04T06:45:56.038Z,27.13
2023-03-04T06:48:24.152Z,22.98
2023-03-04T06:50:52.276Z,24.55
2023-03-04T06:53:20.437Z,24.40
2023-03-04T06:55:49.508Z,27.02
2023-03-04T06:58:18.228Z,24.40
2023-03-04T07:00:47.718Z,28.88
2023-03-04T07:03:15.863Z,24.98
2023-03-04T07:05:44.578Z,29.77
2023-03-04T07:08:12.736Z,30.67
2023-03-04T07:10:40.835Z,25.20
2023-03-04T07:13:08.934Z,23.08
2023-03-04T07:15:37.331Z,26.65
2023-03-04T07:18:06.974Z,29.20
2023-03-04T07:20:35.121Z,28.30
2023-03-04T07:23:03.207Z,30.25
2023-03-04T07:25:31.343Z,21.10
2023-03-04T07:27:59.400Z,22.15
2023-03-04T07:30:27.701Z,29.35
2023-03-04T07:32:58.481Z,28.55
2023-03-04T07:35:28.082Z,27.02
2023-03-04T07:37:56.249Z,24.25
2023-03-04T07:40:24.551Z,24.95
2023-03-04T07:42:52.986Z,23.67
2023-03-04T07:45:21.420Z,19.98
2023-03-04T07:47:49.901Z,23.95
2023-03-04T07:50:19.011Z,22.70
2023-03-04T07:52:50.940Z,25.95
2023-03-04T07:55:19.966Z,26.67
2023-03-04T07:57:49.222Z,30.45
2023-03-04T08:00:18.848Z,24.95
2023-03-04T08:02:47.015Z,21.08
2023-03-04T08:05:15.530Z,24.15
2023-03-04T08:07:43.673Z,22.70
2023-03-04T08:10:13.734Z,19.98
2023-03-04T08:12:41.776Z,24.73
2023-03-04T08:15:10.825Z,24.30
2023-03-04T08:17:39.508Z,24.55
2023-03-04T08:20:08.742Z,24.42
2023-03-04T08:22:36.867Z,22.58
2023-03-04T08:25:05.544Z,23.70
2023-03-04T08:27:34.973Z,22.35
2023-03-04T08:30:03.105Z,20.33
2023-03-04T08:32:31.392Z,21.65
2023-03-04T08:35:02.323Z,21.20
2023-03-04T08:37:31.267Z,22.45
2023-03-04T08:39:59.404Z,22.13
2023-03-04T08:42:27.490Z,19.77
2023-03-04T08:44:56.937Z,20.20
2023-03-04T08:47:25.077Z,22.13
2023-03-04T08:49:53.730Z,25.10
2023-03-04T08:52:21.883Z,22.60
2023-03-04T08:54:49.943Z,24.40
2023-03-04T08:57:18.068Z,21.98
2023-03-04T08:59:46.212Z,21.63
2023-03-04T09:02:17.045Z,29.08
2023-03-04T09:04:45.183Z,24.05
2023-03-04T09:07:14.168Z,30.73
2023-03-04T09:09:42.833Z,20.85
2023-03-04T09:12:11.527Z,27.20
2023-03-04T09:14:39.608Z,19.63
2023-03-04T09:17:09.415Z,21.17
2023-03-04T09:19:38.948Z,23.33
2023-03-04T09:22:07.099Z,20.40
2023-03-04T09:24:35.322Z,21.90
2023-03-04T09:27:03.404Z,21.10
2023-03-04T09:29:31.741Z,24.67
2023-03-04T09:32:00.383Z,23.60
2023-03-04T09:34:28.591Z,22.95
2023-03-04T09:36:58.121Z,19.77
2023-03-04T09:39:26.247Z,23.35
2023-03-04T09:41:58.309Z,22.83
2023-03-04T09:44:30.809Z,20.45
2023-03-04T09:47:02.311Z,20.90
2023-03-04T09:49:31.332Z,27.90
2023-03-04T09:52:05.852Z,20.35
2023-03-04T09:55:05.041Z,20.08
2023-03-04T09:57:47.982Z,24.42
2023-03-04T10:00:19.960Z,20.55
2023-03-04T10:03:14.171Z,25.33
2023-03-04T10:05:47.796Z,26.90
2023-03-04T10:08:34.510Z,23.10
2023-03-04T10:11:04.756Z,27.95
2023-03-04T10:13:39.801Z,28.88
2023-03-04T10:16:13.680Z,29.42
2023-03-04T10:18:48.590Z,28.70
2023-03-04T10:21:24.512Z,29.45
2023-03-04T10:23:54.876Z,25.77
2023-03-04T10:26:23.733Z,32.25
2023-03-04T10:28:51.872Z,22.45
2023-03-04T10:31:28.408Z,23.35
2023-03-04T10:33:56.508Z,24.52
2023-03-04T10:36:41.242Z,24.75
2023-03-04T10:39:14.386Z,28.63
2023-03-04T10:41:45.339Z,26.47
2023-03-04T10:44:17.770Z,26.20
2023-03-04T10:46:47.785Z,27.23
2023-03-04T10:49:18.176Z,32.60
2023-03-04T10:51:47.850Z,32.30
2023-03-04T10:54:26.303Z,26.40
2023-03-04T10:56:57.862Z,29.90
2023-03-04T10:59:43.892Z,27.80
2023-03-04T11:02:33.319Z,27.10
2023-03-04T11:05:17.706Z,27.77
2023-03-04T11:07:55.824Z,26.47
2023-03-04T11:10:30.982Z,31.27
2023-03-04T11:13:03.789Z,34.47
2023-03-04T11:15:49.386Z,35.00
2023-03-04T11:18:18.521Z,31.07
2023-03-04T11:20:49.900Z,36.20
2023-03-04T11:23:19.722Z,37.40
2023-03-04T11:25:53.843Z,27.47
2023-03-04T11:28:25.472Z,30.03
2023-03-04T11:30:56.446Z,27.93
2023-03-04T11:33:30.197Z,30.30
2023-03-04T11:36:07.920Z,25.60
2023-03-04T11:38:40.551Z,31.40
2023-03-04T11:41:16.318Z,28.77
2023-03-04T11:43:47.032Z,31.97
2023-03-04T11:46:47.632Z,35.13
2023-03-04T11:49:45.594Z,37.10
2023-03-04T11:52:27.480Z,29.23
2023-03-04T11:55:07.504Z,30.10
2023-03-04T11:57:41.344Z,34.23
2023-03-04T12:00:27.978Z,36.73
2023-03-04T12:03:17.543Z,41.20
2023-03-04T12:05:55.824Z,27.97
2023-03-04T12:08:36.226Z,28.10
2023-03-04T12:11:10.392Z,30.00
2023-03-04T12:14:01.656Z,29.60
2023-03-04T12:17:02.443Z,29.20
2023-03-04T12:19:43.532Z,29.43
2023-03-04T12:22:28.540Z,32.00
2023-03-04T12:25:16.245Z,34.00
2023-03-04T12:27:54.660Z,31.70
2023-03-04T12:30:42.812Z,35.43
2023-03-04T12:33:21.811Z,27.67
2023-03-04T12:35:59.052Z,32.47
2023-03-04T12:38:40.110Z,30.53
2023-03-04T12:41:24.014Z,29.00
2023-03-04T12:43:57.921Z,32.77
2023-03-04T12:46:38.605Z,29.70
2023-03-04T12:49:21.920Z,31.03
2023-03-04T12:51:58.829Z,32.60
2023-03-04T12:54:33.279Z,25.40
2023-03-04T12:57:05.891Z,26.70
2023-03-04T12:59:38.859Z,26.10
2023-03-04T13:02:37.236Z,27.00
2023-03-04T13:05:30.799Z,27.20
2023-03-04T13:08:08.092Z,31.73
2023-03-04T13:10:36.539Z,35.33
2023-03-04T13:13:05.009Z,26.33
2023-03-04T13:15:36.029Z,26.47
2023-03-04T13:18:33.325Z,26.50
2023-03-04T13:21:18.992Z,28.87
2023-03-04T13:23:47.200Z,29.23
2023-03-04T13:26:24.778Z,31.85
2023-03-04T13:29:10.852Z,29.42
2023-03-04T13:32:01.301Z,32.80
2023-03-04T13:34:51.059Z,27.33
2023-03-04T13:37:31.775Z,29.98
2023-03-04T13:40:33.164Z,31.60
2023-03-04T13:43:26.986Z,32.85
2023-03-04T13:45:55.895Z,29.40
2023-03-04T13:48:32.086Z,41.13
2023-03-04T13:51:01.841Z,33.63
2023-03-04T13:53:42.405Z,34.03
2023-03-04T13:56:33.218Z,35.97
2023-03-04T13:59:28.384Z,36.20
2023-03-04T14:02:15.011Z,32.40
2023-03-04T14:04:45.000Z,34.78
2023-03-04T14:07:25.549Z,35.60
2023-03-04T14:10:00.876Z,30.52
2023-03-04T14:12:31.709Z,38.90
2023-03-04T14:15:02.196Z,34.15
2023-03-04T14:17:33.382Z,34.47
2023-03-04T14:20:03.192Z,33.50
2023-03-04T14:22:35.032Z,33.07
2023-03-04T14:25:05.364Z,41.20
2023-03-04T14:27:36.249Z,30.50
2023-03-04T14:30:08.712Z,33.78
2023-03-04T14:32:36.953Z,34.92
2023-03-04T14:35:07.992Z,33.20
2023-03-04T14:37:45.350Z,28.20
2023-03-04T14:40:22.445Z,34.58
2023-03-04T14:42:56.140Z,33.00
2023-03-04T14:45:25.864Z,36.70
2023-03-04T14:47:58.288Z,32.00
2023-03-04T14:50:26.467Z,30.15
2023-03-04T14:53:16.632Z,27.90
2023-03-04T14:55:58.354Z,26.57
2023-03-04T14:58:28.244Z,30.17
2023-03-04T15:01:16.033Z,27.02
2023-03-04T15:03:47.823Z,25.88
2023-03-04T15:06:20.889Z,30.35
2023-03-04T15:08:57.778Z,26.45
2023-03-04T15:11:28.128Z,31.15
2023-03-04T15:13:58.212Z,31.15
2023-03-04T15:16:28.254Z,29.65
2023-03-04T15:18:58.938Z,31.13
2023-03-04T15:21:32.269Z,28.23
2023-03-04T15:24:03.509Z,32.55
2023-03-04T15:26:33.135Z,31.23
2023-03-04T15:29:01.315Z,25.23
2023-03-04T15:31:31.220Z,26.65
2023-03-04T15:33:59.437Z,32.85
2023-03-04T15:36:27.654Z,26.85
2023-03-04T15:38:55.758Z,32.22
2023-03-04T15:41:27.118Z,33.90
2023-03-04T15:43:56.094Z,31.23
2023-03-04T15:46:24.492Z,29.53
2023-03-04T15:48:52.771Z,28.63
2023-03-04T15:51:23.223Z,32.70
2023-03-04T15:53:53.484Z,30.60
2023-03-04T15:56:26.202Z,26.60
2023-03-04T15:58:56.581Z,37.70
2023-03-04T16:01:25.576Z,28.65
2023-03-04T16:03:54.893Z,32.40
2023-03-04T16:06:30.742Z,35.27
2023-03-04T16:09:01.015Z,25.17
2023-03-04T16:11:33.804Z,29.23
2023-03-04T16:14:01.947Z,28.17
2023-03-04T16:16:30.075Z,31.60
2023-03-04T16:18:58.388Z,31.98
2023-03-04T16:21:26.689Z,30.73
2023-03-04T16:23:55.925Z,25.08
2023-03-04T16:26:25.713Z,24.67
2023-03-04T16:28:55.627Z,26.63
2023-03-04T16:31:24.374Z,27.05
2023-03-04T16:33:52.508Z,28.83
2023-03-04T16:36:24.340Z,28.83
2023-03-04T16:38:54.596Z,30.10
2023-03-04T16:41:27.765Z,35.25
2023-03-04T16:44:00.615Z,31.40
2023-03-04T16:46:30.172Z,26.60
2023-03-04T16:48:58.774Z,25.90
2023-03-04T16:51:27.051Z,26.97
2023-03-04T16:53:57.472Z,27.98
2023-03-04T16:56:25.546Z,31.67
2023-03-04T16:58:54.575Z,27.42
2023-03-04T17:01:26.848Z,19.20
2023-03-04T17:03:55.979Z,24.58
2023-03-04T17:06:25.256Z,25.05
2023-03-04T17:08:53.483Z,24.90
2023-03-04T17:11:24.285Z,27.38
2023-03-04T17:13:52.732Z,26.38
2023-03-04T17:16:21.038Z,23.45
2023-03-04T17:18:51.262Z,27.03
2023-03-04T17:21:23.441Z,22.50
2023-03-04T17:23:52.127Z,22.40
2023-03-04T17:26:22.805Z,22.60
2023-03-04T17:28:51.814Z,24.67
2023-03-04T17:31:22.249Z,21.40
2023-03-04T17:33:52.177Z,23.00
2023-03-04T17:36:20.940Z,22.95
2023-03-04T17:38:52.063Z,25.10
2023-03-04T17:41:20.948Z,22.98
2023-03-04T17:43:51.380Z,22.83
2023-03-04T17:46:21.817Z,24.33
2023-03-04T17:48:52.940Z,25.50
2023-03-04T17:51:21.120Z,26.43
2023-03-04T17:53:49.209Z,23.13
2023-03-04T17:56:17.458Z,26.37
2023-03-04T17:58:45.893Z,27.67
2023-03-04T18:01:19.385Z,25.25
2023-03-04T18:03:48.312Z,24.45
2023-03-04T18:06:18.372Z,24.10
2023-03-04T18:08:46.800Z,24.33
2023-03-04T18:11:15.001Z,21.35
2023-03-04T18:13:43.967Z,21.58
2023-03-04T18:16:14.797Z,21.40
2023-03-04T18:18:43.771Z,26.80
2023-03-04T18:21:13.636Z,24.58
2023-03-04T18:23:43.645Z,23.13
2023-03-04T18:26:12.873Z,26.17
2023-03-04T18:28:41.041Z,25.00
2023-03-04T18:31:10.472Z,22.88
2023-03-04T18:33:39.763Z,23.75
2023-03-04T18:36:10.330Z,23.50
2023-03-04T18:38:38.777Z,20.20
2023-03-04T18:41:10.549Z,20.30
2023-03-04T18:43:39.105Z,26.33
2023-03-04T18:46:10.037Z,22.10
2023-03-04T18:48:41.315Z,31.98
2023-03-04T18:51:09.557Z,23.95
2023-03-04T18:53:37.838Z,21.58
2023-03-04T18:56:12.569Z,25.73
2023-03-04T18:58:42.574Z,23.45
2023-03-04T19:01:13.044Z,23.95
2023-03-04T19:03:42.431Z,25.80
2023-03-04T19:06:10.852Z,20.52
2023-03-04T19:08:39.618Z,24.13
2023-03-04T19:11:09.316Z,21.35
2023-03-04T19:13:37.934Z,25.25
2023-03-04T19:16:06.840Z,16.92
2023-03-04T19:18:35.051Z,24.98
2023-03-04T19:21:05.340Z,21.30
2023-03-04T19:23:33.790Z,18.05
2023-03-04T19:26:02.030Z,22.42
2023-03-04T19:28:32.021Z,23.70
2023-03-04T19:31:00.547Z,22.98
2023-03-04T19:33:28.816Z,24.50
2023-03-04T19:35:56.982Z,24.58
2023-03-04T19:38:25.076Z,23.08
2023-03-04T19:40:53.460Z,20.77
2023-03-04T19:43:21.675Z,22.73
2023-03-04T19:45:56.744Z,20.58
2023-03-04T19:48:25.584Z,26.00
2023-03-04T19:50:53.744Z,28.23
2023-03-04T19:53:22.360Z,23.92
2023-03-04T19:55:50.757Z,24.13
2023-03-04T19:58:19.486Z,22.80
2023-03-04T20:00:47.769Z,22.95
2023-03-04T20:03:21.027Z,32.17
2023-03-04T20:05:49.164Z,22.35
2023-03-04T20:08:17.296Z,25.83
2023-03-04T20:10:45.466Z,23.67
2023-03-04T20:13:13.596Z,23.27
2023-03-04T20:15:44.294Z,23.80
2023-03-04T20:18:12.513Z,21.42
2023-03-04T20:20:42.102Z,27.42
2023-03-04T20:23:11.556Z,25.50
2023-03-04T20:25:41.626Z,31.45
2023-03-04T20:28:10.268Z,25.85
2023-03-04T20:30:39.227Z,21.80
2023-03-04T20:33:07.360Z,28.60
2023-03-04T20:35:35.639Z,30.65
2023-03-04T20:38:05.269Z,26.75
2023-03-04T20:40:35.805Z,31.20
2023-03-04T20:43:05.623Z,38.47
2023-03-04T20:45:34.593Z,25.63
2023-03-04T20:48:02.950Z,24.35
2023-03-04T20:50:31.316Z,21.45
2023-03-04T20:52:59.501Z,25.15
2023-03-04T20:55:30.346Z,26.63
2023-03-04T20:57:58.370Z,22.00
2023-03-04T21:00:26.611Z,24.20
2023-03-04T21:02:55.173Z,22.10
2023-03-04T21:05:23.348Z,26.17
2023-03-04T21:07:51.591Z,27.27
2023-03-04T21:10:20.835Z,28.40
2023-03-04T21:12:50.607Z,25.55
2023-03-04T21:15:18.911Z,29.73
2023-03-04T21:17:47.080Z,29.38
2023-03-04T21:20:16.255Z,29.92
2023-03-04T21:22:44.406Z,31.13
2023-03-04T21:25:12.828Z,26.25
2023-03-04T21:27:42.774Z,26.00
2023-03-04T21:30:13.672Z,28.67
2023-03-04T21:32:42.303Z,28.00
2023-03-04T21:35:14.777Z,26.95
2023-03-04T21:37:42.986Z,36.72
2023-03-04T21:40:12.792Z,30.08
2023-03-04T21:42:41.326Z,25.73
2023-03-04T21:45:12.670Z,30.40
2023-03-04T21:47:41.340Z,27.00
2023-03-04T21:50:10.658Z,25.60
2023-03-04T21:52:40.636Z,23.48
2023-03-04T21:55:09.455Z,25.00
2023-03-04T21:57:37.651Z,25.83
2023-03-04T22:00:07.112Z,27.48
2023-03-04T22:02:36.587Z,28.25
2023-03-04T22:05:04.985Z,23.25
2023-03-04T22:07:34.633Z,26.90
2023-03-04T22:10:06.617Z,25.45
2023-03-04T22:12:34.827Z,22.85
2023-03-04T22:15:03.078Z,30.48
2023-03-04T22:17:31.185Z,24.42
2023-03-04T22:20:02.419Z,25.45
2023-03-04T22:22:31.320Z,21.45
2023-03-04T22:25:00.297Z,24.02
2023-03-04T22:27:28.937Z,28.40
2023-03-04T22:29:57.515Z,30.20
2023-03-04T22:32:25.804Z,23.88
2023-03-04T22:34:54.004Z,23.73
2023-03-04T22:37:23.605Z,26.98
2023-03-04T22:39:51.768Z,23.95
2023-03-04T22:42:19.879Z,32.20
2023-03-04T22:44:48.025Z,29.92
2023-03-04T22:47:16.374Z,24.30
2023-03-04T22:49:44.943Z,24.25
2023-03-04T22:52:13.205Z,22.60
2023-03-04T22:54:42.948Z,21.17
2023-03-04T22:57:11.700Z,22.93
2023-03-04T22:59:40.360Z,24.83
2023-03-04T23:02:10.770Z,23.70
2023-03-04T23:04:38.945Z,30.17
2023-03-04T23:07:08.226Z,26.92
2023-03-04T23:09:36.358Z,24.38
2023-03-04T23:12:06.563Z,23.90
2023-03-04T23:14:34.688Z,26.75
2023-03-04T23:17:02.823Z,22.27
2023-03-04T23:19:30.969Z,29.08
2023-03-04T23:22:00.459Z,28.00
2023-03-04T23:24:29.535Z,22.77
2023-03-04T23:26:57.660Z,30.80
2023-03-04T23:29:27.221Z,28.70
2023-03-04T23:31:55.305Z,24.83
2023-03-04T23:34:24.439Z,23.58
2023-03-04T23:36:54.069Z,21.38
2023-03-04T23:39:22.238Z,24.02
2023-03-04T23:41:50.341Z,28.45
2023-03-04T23:44:18.450Z,22.92
2023-03-04T23:46:47.897Z,35.63
2023-03-04T23:49:17.948Z,54.47
2023-03-04T23:51:46.896Z,24.33
2023-03-04T23:54:15.424Z,23.25
2023-03-04T23:56:43.652Z,34.35
2023-03-04T23:59:13.251Z,29.45
